createdAt,value
2019-01-23T00:00:43.196Z,-6.20
2019-01-23T00:01:30.429Z,-6.20
2019-01-23T00:02:06.342Z,-6.20
2019-01-23T00:02:41.955Z,-6.20
2019-01-23T00:03:17.492Z,-6.20
2019-01-23T00:03:53.241Z,-6.10
2019-01-23T00:04:28.785Z,-6.20
2019-01-23T00:05:04.715Z,-6.20
2019-01-23T00:05:40.269Z,-6.10
2019-01-23T00:06:15.964Z,-6.20
2019-01-23T00:06:51.690Z,-6.20
2019-01-23T00:07:27.358Z,-6.20
2019-01-23T00:08:02.969Z,-6.20
2019-01-23T00:08:38.638Z,-6.20
2019-01-23T00:09:14.238Z,-6.20
2019-01-23T00:09:49.780Z,-6.20
2019-01-23T00:10:25.517Z,-6.20
2019-01-23T00:11:02.528Z,-6.20
2019-01-23T00:11:38.495Z,-6.20
2019-01-23T00:12:14.215Z,-6.20
2019-01-23T00:12:49.814Z,-6.20
2019-01-23T00:13:25.652Z,-6.20
2019-01-23T00:14:01.300Z,-6.20
2019-01-23T00:14:37.001Z,-6.20
2019-01-23T00:15:12.673Z,-6.10
2019-01-23T00:15:48.439Z,-6.20
2019-01-23T00:16:24.271Z,-6.20
2019-01-23T00:16:59.824Z,-6.20
2019-01-23T00:17:35.552Z,-6.20
2019-01-23T00:18:11.152Z,-6.10
2019-01-23T00:18:46.851Z,-6.10
2019-01-23T00:19:22.494Z,-6.10
2019-01-23T00:19:58.372Z,-6.10
2019-01-23T00:20:34.123Z,-6.10
2019-01-23T00:21:09.950Z,-6.10
2019-01-23T00:21:45.570Z,-6.10
2019-01-23T00:22:21.392Z,-6.10
2019-01-23T00:22:57.060Z,-6.10
2019-01-23T00:23:32.669Z,-6.10
2019-01-23T00:24:08.348Z,-6.10
2019-01-23T00:24:43.939Z,-6.10
2019-01-23T00:25:19.465Z,-6.10
2019-01-23T00:25:55.298Z,-6.10
2019-01-23T00:26:30.825Z,-6.10
2019-01-23T00:27:06.489Z,-6.10
2019-01-23T00:27:42.199Z,-6.10
2019-01-23T00:28:17.835Z,-6.10
2019-01-23T00:28:53.392Z,-6.10
2019-01-23T00:29:29.231Z,-6.10
2019-01-23T00:30:06.075Z,-6.10
2019-01-23T00:30:41.837Z,-6.10
2019-01-23T00:31:17.519Z,-6.10
2019-01-23T00:31:53.101Z,-6.10
2019-01-23T00:32:28.756Z,-6.10
2019-01-23T00:33:04.467Z,-6.10
2019-01-23T00:33:40.073Z,-6.10
2019-01-23T00:34:15.664Z,-6.10
2019-01-23T00:34:51.400Z,-6.10
2019-01-23T00:35:27.143Z,-6.10
2019-01-23T00:36:02.720Z,-6.10
2019-01-23T00:36:38.300Z,-6.10
2019-01-23T00:37:13.913Z,-6.10
2019-01-23T00:37:49.555Z,-6.10
2019-01-23T00:38:25.085Z,-6.10
2019-01-23T00:39:00.813Z,-6.00
2019-01-23T00:39:36.565Z,-6.10
2019-01-23T00:40:12.101Z,-6.10
2019-01-23T00:40:47.643Z,-6.10
2019-01-23T00:41:23.252Z,-6.00
2019-01-23T00:41:58.831Z,-6.10
2019-01-23T00:42:34.541Z,-6.10
2019-01-23T00:43:10.204Z,-6.10
2019-01-23T00:43:45.901Z,-6.10
2019-01-23T00:44:21.730Z,-6.10
2019-01-23T00:44:57.275Z,-6.10
2019-01-23T00:45:33.119Z,-6.10
2019-01-23T00:46:08.701Z,-6.10
2019-01-23T00:46:44.394Z,-6.10
2019-01-23T00:47:19.934Z,-6.10
2019-01-23T00:47:55.628Z,-6.10
2019-01-23T00:48:31.413Z,-6.10
2019-01-23T00:49:07.045Z,-6.10
2019-01-23T00:49:43.061Z,-6.10
2019-01-23T00:50:18.927Z,-6.10
2019-01-23T00:50:54.657Z,-6.10
2019-01-23T00:51:30.240Z,-6.10
2019-01-23T00:52:06.047Z,-6.10
2019-01-23T00:52:41.758Z,-6.20
2019-01-23T00:53:17.398Z,-6.20
2019-01-23T00:53:53.007Z,-6.20
2019-01-23T00:54:28.678Z,-6.20
2019-01-23T00:55:04.958Z,-6.20
2019-01-23T00:55:40.638Z,-6.30
2019-01-23T00:56:16.278Z,-6.30
2019-01-23T00:56:52.019Z,-6.30
2019-01-23T00:57:27.564Z,-6.30
2019-01-23T00:58:03.179Z,-6.30
2019-01-23T00:58:38.807Z,-6.30
2019-01-23T00:59:14.371Z,-6.30
2019-01-23T00:59:49.894Z,-6.30
2019-01-23T01:00:26.711Z,-6.30
2019-01-23T01:01:02.817Z,-6.30
2019-01-23T01:01:38.438Z,-6.20
2019-01-23T01:02:14.024Z,-6.20
2019-01-23T01:02:49.868Z,-6.20
2019-01-23T01:03:25.408Z,-6.20
2019-01-23T01:04:00.971Z,-6.20
2019-01-23T01:04:36.625Z,-6.20
2019-01-23T01:05:12.613Z,-6.20
2019-01-23T01:05:48.491Z,-6.20
2019-01-23T01:06:24.233Z,-6.20
2019-01-23T01:06:59.795Z,-6.20
2019-01-23T01:07:35.400Z,-6.10
2019-01-23T01:08:11.444Z,-6.10
2019-01-23T01:08:47.045Z,-6.10
2019-01-23T01:09:22.634Z,-6.10
2019-01-23T01:09:58.290Z,-6.10
2019-01-23T01:10:33.916Z,-6.00
2019-01-23T01:11:09.485Z,-6.00
2019-01-23T01:11:45.004Z,-6.00
2019-01-23T01:12:20.608Z,-6.00
2019-01-23T01:12:56.231Z,-6.00
2019-01-23T01:13:31.948Z,-6.00
2019-01-23T01:14:07.615Z,-5.90
2019-01-23T01:14:43.358Z,-5.90
2019-01-23T01:15:19.279Z,-5.90
2019-01-23T01:15:54.918Z,-5.90
2019-01-23T01:16:30.456Z,-5.90
2019-01-23T01:17:06.411Z,-5.80
2019-01-23T01:17:42.026Z,-5.90
2019-01-23T01:18:17.673Z,-5.80
2019-01-23T01:18:53.329Z,-5.80
2019-01-23T01:19:29.094Z,-5.80
2019-01-23T01:20:05.578Z,-5.80
2019-01-23T01:20:41.243Z,-5.80
2019-01-23T01:21:16.998Z,-5.80
2019-01-23T01:21:52.741Z,-5.80
2019-01-23T01:22:28.262Z,-5.70
2019-01-23T01:23:04.105Z,-5.80
2019-01-23T01:23:39.843Z,-5.70
2019-01-23T01:24:15.764Z,-5.70
2019-01-23T01:24:51.558Z,-5.80
2019-01-23T01:25:27.199Z,-5.70
2019-01-23T01:26:02.754Z,-5.70
2019-01-23T01:26:38.322Z,-5.70
2019-01-23T01:27:13.932Z,-5.70
2019-01-23T01:27:49.559Z,-5.70
2019-01-23T01:28:25.220Z,-5.70
2019-01-23T01:29:00.849Z,-5.70
2019-01-23T01:29:36.741Z,-5.70
2019-01-23T01:30:18.039Z,-5.70
2019-01-23T01:30:53.776Z,-5.70
2019-01-23T01:31:29.630Z,-5.70
2019-01-23T01:32:05.258Z,-5.70
2019-01-23T01:32:41.014Z,-5.60
2019-01-23T01:33:16.834Z,-5.60
2019-01-23T01:33:52.474Z,-5.60
2019-01-23T01:34:28.012Z,-5.60
2019-01-23T01:35:03.605Z,-5.60
2019-01-23T01:35:39.195Z,-5.60
2019-01-23T01:36:14.841Z,-5.60
2019-01-23T01:36:50.387Z,-5.60
2019-01-23T01:37:26.106Z,-5.60
2019-01-23T01:38:01.803Z,-5.60
2019-01-23T01:38:37.261Z,-5.60
2019-01-23T01:39:12.894Z,-5.60
2019-01-23T01:39:48.429Z,-5.50
2019-01-23T01:40:24.161Z,-5.60
2019-01-23T01:40:59.660Z,-5.50
2019-01-23T01:41:35.243Z,-5.50
2019-01-23T01:42:11.076Z,-5.50
2019-01-23T01:42:46.611Z,-5.50
2019-01-23T01:43:22.515Z,-5.50
2019-01-23T01:43:58.174Z,-5.50
2019-01-23T01:44:33.889Z,-5.50
2019-01-23T01:45:10.083Z,-5.50
2019-01-23T01:45:45.734Z,-5.50
2019-01-23T01:46:21.444Z,-5.50
2019-01-23T01:46:57.135Z,-5.50
2019-01-23T01:47:32.910Z,-5.50
2019-01-23T01:48:08.561Z,-5.50
2019-01-23T01:48:44.359Z,-5.50
2019-01-23T01:49:19.931Z,-5.50
2019-01-23T01:49:55.556Z,-5.50
2019-01-23T01:50:31.194Z,-5.50
2019-01-23T01:51:06.975Z,-5.50
2019-01-23T01:51:42.667Z,-5.50
2019-01-23T01:52:18.204Z,-5.50
2019-01-23T01:52:53.845Z,-5.50
2019-01-23T01:53:29.465Z,-5.50
2019-01-23T01:54:05.080Z,-5.50
2019-01-23T01:54:40.852Z,-5.50
2019-01-23T01:55:16.870Z,-5.50
2019-01-23T01:55:52.479Z,-5.50
2019-01-23T01:56:28.429Z,-5.50
2019-01-23T01:57:04.107Z,-5.50
2019-01-23T01:57:39.921Z,-5.50
2019-01-23T01:58:15.587Z,-5.50
2019-01-23T01:58:51.347Z,-5.50
2019-01-23T01:59:26.878Z,-5.40
2019-01-23T02:00:02.390Z,-5.40
2019-01-23T02:00:38.601Z,-5.40
2019-01-23T02:01:14.085Z,-5.50
2019-01-23T02:01:49.840Z,-5.50
2019-01-23T02:02:25.631Z,-5.50
2019-01-23T02:03:01.238Z,-5.50
2019-01-23T02:03:36.919Z,-5.40
2019-01-23T02:04:12.560Z,-5.40
2019-01-23T02:04:48.114Z,-5.50
2019-01-23T02:05:23.678Z,-5.40
2019-01-23T02:05:59.339Z,-5.40
2019-01-23T02:06:35.120Z,-5.40
2019-01-23T02:07:10.687Z,-5.50
2019-01-23T02:07:46.561Z,-5.50
2019-01-23T02:08:22.206Z,-5.50
2019-01-23T02:08:57.964Z,-5.40
2019-01-23T02:09:35.572Z,-5.40
2019-01-23T02:10:12.921Z,-5.50
2019-01-23T02:10:48.564Z,-5.40
2019-01-23T02:11:24.289Z,-5.40
2019-01-23T02:11:59.954Z,-5.40
2019-01-23T02:12:35.738Z,-5.40
2019-01-23T02:13:11.392Z,-5.40
2019-01-23T02:13:47.023Z,-5.40
2019-01-23T02:14:22.762Z,-5.40
2019-01-23T02:14:58.390Z,-5.40
2019-01-23T02:15:34.103Z,-5.40
2019-01-23T02:16:09.843Z,-5.30
2019-01-23T02:16:45.520Z,-5.30
2019-01-23T02:17:21.208Z,-5.30
2019-01-23T02:17:56.906Z,-5.30
2019-01-23T02:18:32.519Z,-5.30
2019-01-23T02:19:08.077Z,-5.30
2019-01-23T02:19:43.780Z,-5.30
2019-01-23T02:20:27.089Z,-5.30
2019-01-23T02:21:02.881Z,-5.30
2019-01-23T02:21:38.726Z,-5.30
2019-01-23T02:22:14.879Z,-5.20
2019-01-23T02:22:50.696Z,-5.20
2019-01-23T02:23:26.395Z,-5.20
2019-01-23T02:24:02.250Z,-5.20
2019-01-23T02:24:38.028Z,-5.20
2019-01-23T02:25:14.142Z,-5.20
2019-01-23T02:25:49.860Z,-5.20
2019-01-23T02:26:25.630Z,-5.20
2019-01-23T02:27:01.247Z,-5.20
2019-01-23T02:27:36.980Z,-5.20
2019-01-23T02:28:12.628Z,-5.10
2019-01-23T02:28:48.572Z,-5.10
2019-01-23T02:29:24.157Z,-5.10
2019-01-23T02:29:59.942Z,-5.10
2019-01-23T02:30:35.846Z,-5.10
2019-01-23T02:31:11.548Z,-5.10
2019-01-23T02:31:47.579Z,-5.10
2019-01-23T02:32:23.221Z,-5.10
2019-01-23T02:32:58.694Z,-5.00
2019-01-23T02:33:34.360Z,-5.00
2019-01-23T02:34:10.013Z,-5.00
2019-01-23T02:34:46.204Z,-5.00
2019-01-23T02:35:21.994Z,-5.00
2019-01-23T02:35:57.573Z,-5.00
2019-01-23T02:36:33.159Z,-5.00
2019-01-23T02:37:08.890Z,-5.00
2019-01-23T02:37:44.641Z,-5.00
2019-01-23T02:38:20.347Z,-5.00
2019-01-23T02:38:55.868Z,-5.00
2019-01-23T02:39:31.719Z,-5.00
2019-01-23T02:40:09.335Z,-5.00
2019-01-23T02:40:45.072Z,-5.00
2019-01-23T02:41:20.999Z,-5.00
2019-01-23T02:41:56.949Z,-5.00
2019-01-23T02:42:32.567Z,-5.00
2019-01-23T02:43:08.163Z,-5.00
2019-01-23T02:43:43.725Z,-5.00
2019-01-23T02:44:19.523Z,-5.00
2019-01-23T02:44:55.087Z,-5.00
2019-01-23T02:45:30.631Z,-5.00
2019-01-23T02:46:06.395Z,-5.00
2019-01-23T02:46:42.351Z,-5.00
2019-01-23T02:47:18.176Z,-5.00
2019-01-23T02:47:53.780Z,-5.00
2019-01-23T02:48:29.302Z,-5.00
2019-01-23T02:49:05.164Z,-4.90
2019-01-23T02:49:40.800Z,-4.90
2019-01-23T02:50:16.598Z,-4.90
2019-01-23T02:50:52.148Z,-4.90
2019-01-23T02:51:27.685Z,-4.90
2019-01-23T02:52:03.400Z,-4.90
2019-01-23T02:52:39.180Z,-4.90
2019-01-23T02:53:15.133Z,-4.90
2019-01-23T02:53:50.748Z,-4.90
2019-01-23T02:54:26.376Z,-4.90
2019-01-23T02:55:02.120Z,-4.80
2019-01-23T02:55:37.764Z,-4.80
2019-01-23T02:56:13.377Z,-4.80
2019-01-23T02:56:49.130Z,-4.80
2019-01-23T02:57:24.834Z,-4.80
2019-01-23T02:58:00.420Z,-4.80
2019-01-23T02:58:36.025Z,-4.80
2019-01-23T02:59:17.330Z,-4.80
2019-01-23T02:59:48.991Z,-4.80
2019-01-23T03:00:24.644Z,-4.80
2019-01-23T03:01:00.346Z,-4.80
2019-01-23T03:01:35.866Z,-4.80
2019-01-23T03:02:11.385Z,-4.80
2019-01-23T03:02:47.371Z,-4.80
2019-01-23T03:03:22.957Z,-4.80
2019-01-23T03:03:58.498Z,-4.90
2019-01-23T03:04:34.260Z,-4.90
2019-01-23T03:05:11.957Z,-4.90
2019-01-23T03:05:47.651Z,-4.90
2019-01-23T03:06:23.198Z,-4.90
2019-01-23T03:06:59.104Z,-4.90
2019-01-23T03:07:34.642Z,-4.90
2019-01-23T03:08:10.263Z,-4.80
2019-01-23T03:08:45.816Z,-4.80
2019-01-23T03:09:21.385Z,-4.90
2019-01-23T03:09:57.142Z,-4.80
2019-01-23T03:10:32.942Z,-4.80
2019-01-23T03:11:08.756Z,-4.80
2019-01-23T03:11:44.496Z,-4.80
2019-01-23T03:12:20.203Z,-4.90
2019-01-23T03:12:55.854Z,-4.90
2019-01-23T03:13:31.500Z,-4.90
2019-01-23T03:14:07.355Z,-4.80
2019-01-23T03:14:43.042Z,-4.80
2019-01-23T03:15:19.136Z,-4.90
2019-01-23T03:15:54.706Z,-4.80
2019-01-23T03:16:30.536Z,-4.80
2019-01-23T03:17:06.071Z,-4.90
2019-01-23T03:17:41.582Z,-4.90
2019-01-23T03:18:17.224Z,-4.90
2019-01-23T03:18:52.914Z,-4.90
2019-01-23T03:19:28.519Z,-4.90
2019-01-23T03:20:04.245Z,-4.90
2019-01-23T03:20:39.762Z,-4.90
2019-01-23T03:21:15.396Z,-4.90
2019-01-23T03:21:50.926Z,-5.00
2019-01-23T03:22:26.463Z,-5.00
2019-01-23T03:23:02.032Z,-5.00
2019-01-23T03:23:37.847Z,-5.00
2019-01-23T03:24:13.566Z,-5.00
2019-01-23T03:24:49.163Z,-5.00
2019-01-23T03:25:24.786Z,-5.00
2019-01-23T03:26:00.496Z,-5.00
2019-01-23T03:26:36.336Z,-5.10
2019-01-23T03:27:11.996Z,-5.10
2019-01-23T03:27:47.739Z,-5.10
2019-01-23T03:28:23.267Z,-5.10
2019-01-23T03:28:59.136Z,-5.10
2019-01-23T03:29:35.116Z,-5.10
2019-01-23T03:30:19.464Z,-5.10
2019-01-23T03:30:55.124Z,-5.10
2019-01-23T03:31:31.085Z,-5.10
2019-01-23T03:32:06.870Z,-5.10
2019-01-23T03:32:42.490Z,-5.10
2019-01-23T03:33:18.430Z,-5.10
2019-01-23T03:33:54.140Z,-5.10
2019-01-23T03:34:29.701Z,-5.10
2019-01-23T03:35:06.435Z,-5.10
2019-01-23T03:35:42.207Z,-5.10
2019-01-23T03:36:17.856Z,-5.00
2019-01-23T03:36:53.668Z,-5.00
2019-01-23T03:37:29.627Z,-5.00
2019-01-23T03:38:05.391Z,-5.00
2019-01-23T03:38:41.106Z,-5.00
2019-01-23T03:39:16.763Z,-5.00
2019-01-23T03:39:52.519Z,-5.00
2019-01-23T03:40:28.307Z,-5.00
2019-01-23T03:41:04.154Z,-5.00
2019-01-23T03:41:39.702Z,-5.00
2019-01-23T03:42:15.261Z,-5.00
2019-01-23T03:42:50.963Z,-5.00
2019-01-23T03:43:26.649Z,-5.00
2019-01-23T03:44:02.245Z,-5.00
2019-01-23T03:44:38.092Z,-5.00
2019-01-23T03:45:14.575Z,-5.00
2019-01-23T03:45:50.359Z,-5.00
2019-01-23T03:46:26.142Z,-5.00
2019-01-23T03:47:01.885Z,-5.00
2019-01-23T03:47:37.529Z,-5.00
2019-01-23T03:48:13.350Z,-5.00
2019-01-23T03:48:49.147Z,-5.00
2019-01-23T03:49:24.902Z,-5.00
2019-01-23T03:50:00.689Z,-5.00
2019-01-23T03:50:36.323Z,-5.00
2019-01-23T03:51:12.155Z,-5.00
2019-01-23T03:51:47.903Z,-5.00
2019-01-23T03:52:23.475Z,-5.00
2019-01-23T03:52:59.126Z,-5.00
2019-01-23T03:53:34.781Z,-5.00
2019-01-23T03:54:10.466Z,-5.00
2019-01-23T03:54:46.005Z,-5.00
2019-01-23T03:55:21.774Z,-5.10
2019-01-23T03:55:57.487Z,-5.00
2019-01-23T03:56:33.128Z,-5.00
2019-01-23T03:57:08.755Z,-5.00
2019-01-23T03:57:44.327Z,-5.00
2019-01-23T03:58:19.911Z,-5.10
2019-01-23T03:58:55.459Z,-5.10
2019-01-23T03:59:32.282Z,-5.10
2019-01-23T04:00:10.522Z,-5.10
2019-01-23T04:00:46.479Z,-5.10
2019-01-23T04:01:22.117Z,-5.00
2019-01-23T04:01:57.868Z,-5.00
2019-01-23T04:02:33.509Z,-5.00
2019-01-23T04:03:09.177Z,-5.00
2019-01-23T04:03:44.770Z,-5.00
2019-01-23T04:04:20.390Z,-5.10
2019-01-23T04:04:56.049Z,-5.10
2019-01-23T04:05:31.570Z,-5.10
2019-01-23T04:06:07.300Z,-5.10
2019-01-23T04:06:43.209Z,-5.00
2019-01-23T04:07:18.764Z,-5.00
2019-01-23T04:07:54.530Z,-5.00
2019-01-23T04:08:30.046Z,-5.00
2019-01-23T04:09:08.601Z,-5.00
2019-01-23T04:09:44.283Z,-5.00
2019-01-23T04:10:20.009Z,-5.00
2019-01-23T04:10:55.673Z,-5.00
2019-01-23T04:11:31.407Z,-5.00
2019-01-23T04:12:07.110Z,-5.00
2019-01-23T04:12:42.896Z,-5.00
2019-01-23T04:13:18.509Z,-5.00
2019-01-23T04:13:54.373Z,-5.00
2019-01-23T04:14:30.094Z,-5.00
2019-01-23T04:15:09.511Z,-5.00
2019-01-23T04:15:45.159Z,-5.00
2019-01-23T04:16:20.790Z,-5.00
2019-01-23T04:16:56.423Z,-5.00
2019-01-23T04:17:32.166Z,-5.00
2019-01-23T04:18:07.774Z,-5.00
2019-01-23T04:18:43.482Z,-5.00
2019-01-23T04:19:19.173Z,-5.00
2019-01-23T04:19:54.918Z,-5.00
2019-01-23T04:20:30.811Z,-5.00
2019-01-23T04:21:06.681Z,-4.90
2019-01-23T04:21:42.462Z,-4.90
2019-01-23T04:22:18.295Z,-4.90
2019-01-23T04:22:54.080Z,-4.90
2019-01-23T04:23:29.728Z,-4.90
2019-01-23T04:24:05.621Z,-4.90
2019-01-23T04:24:41.450Z,-4.90
2019-01-23T04:25:17.362Z,-4.90
2019-01-23T04:25:53.063Z,-4.90
2019-01-23T04:26:28.769Z,-4.90
2019-01-23T04:27:04.580Z,-4.90
2019-01-23T04:27:40.313Z,-4.90
2019-01-23T04:28:16.343Z,-5.00
2019-01-23T04:28:52.317Z,-4.90
2019-01-23T04:29:27.905Z,-4.90
2019-01-23T04:30:03.653Z,-5.00
2019-01-23T04:30:39.371Z,-4.90
2019-01-23T04:31:15.206Z,-4.90
2019-01-23T04:31:51.017Z,-4.90
2019-01-23T04:32:26.806Z,-4.90
2019-01-23T04:33:02.388Z,-4.90
2019-01-23T04:33:38.120Z,-4.90
2019-01-23T04:34:13.982Z,-4.90
2019-01-23T04:34:49.836Z,-4.90
2019-01-23T04:35:25.495Z,-4.90
2019-01-23T04:36:01.275Z,-4.90
2019-01-23T04:36:37.118Z,-4.90
2019-01-23T04:37:12.759Z,-4.90
2019-01-23T04:37:48.571Z,-4.90
2019-01-23T04:38:24.387Z,-4.90
2019-01-23T04:39:00.066Z,-4.90
2019-01-23T04:39:35.605Z,-4.90
2019-01-23T04:40:11.868Z,-4.90
2019-01-23T04:40:47.654Z,-4.90
2019-01-23T04:41:23.350Z,-4.90
2019-01-23T04:41:58.836Z,-4.90
2019-01-23T04:42:34.500Z,-4.90
2019-01-23T04:43:10.071Z,-4.90
2019-01-23T04:43:46.041Z,-4.90
2019-01-23T04:44:21.888Z,-4.90
2019-01-23T04:44:57.556Z,-4.90
2019-01-23T04:45:33.245Z,-5.00
2019-01-23T04:46:09.179Z,-5.00
2019-01-23T04:46:44.826Z,-5.00
2019-01-23T04:47:20.501Z,-5.00
2019-01-23T04:47:56.131Z,-5.00
2019-01-23T04:48:31.729Z,-5.00
2019-01-23T04:49:07.460Z,-5.00
2019-01-23T04:49:43.302Z,-5.00
2019-01-23T04:50:19.378Z,-5.00
2019-01-23T04:51:12.171Z,-4.90
2019-01-23T04:51:55.132Z,-5.00
2019-01-23T04:52:38.343Z,-5.00
2019-01-23T04:53:19.200Z,-5.00
2019-01-23T04:53:55.129Z,-4.90
2019-01-23T04:54:30.845Z,-4.90
2019-01-23T04:55:07.011Z,-4.90
2019-01-23T04:55:42.537Z,-4.90
2019-01-23T04:56:18.405Z,-4.90
2019-01-23T04:56:54.335Z,-4.90
2019-01-23T04:57:29.939Z,-4.90
2019-01-23T04:58:05.502Z,-4.90
2019-01-23T04:58:41.356Z,-5.00
2019-01-23T04:59:17.684Z,-5.00
2019-01-23T04:59:53.391Z,-4.90
2019-01-23T05:00:29.874Z,-4.90
2019-01-23T05:01:05.833Z,-5.00
2019-01-23T05:01:41.471Z,-4.90
2019-01-23T05:02:17.199Z,-4.90
2019-01-23T05:02:52.993Z,-4.90
2019-01-23T05:03:28.990Z,-4.90
2019-01-23T05:04:05.268Z,-4.90
2019-01-23T05:04:41.052Z,-4.90
2019-01-23T05:05:16.699Z,-4.90
2019-01-23T05:05:52.382Z,-4.90
2019-01-23T05:06:28.037Z,-5.00
2019-01-23T05:07:03.927Z,-4.90
2019-01-23T05:07:40.467Z,-5.00
2019-01-23T05:08:16.241Z,-4.90
2019-01-23T05:08:52.167Z,-4.90
2019-01-23T05:09:28.044Z,-4.90
2019-01-23T05:10:03.898Z,-4.90
2019-01-23T05:10:39.735Z,-4.90
2019-01-23T05:11:15.389Z,-5.00
2019-01-23T05:11:51.139Z,-5.00
2019-01-23T05:12:27.000Z,-5.00
2019-01-23T05:13:02.780Z,-5.00
2019-01-23T05:13:38.334Z,-5.00
2019-01-23T05:14:13.993Z,-5.00
2019-01-23T05:14:49.824Z,-5.00
2019-01-23T05:15:25.499Z,-5.00
2019-01-23T05:16:01.279Z,-5.00
2019-01-23T05:16:37.077Z,-5.00
2019-01-23T05:17:12.874Z,-5.00
2019-01-23T05:17:48.879Z,-5.00
2019-01-23T05:18:24.573Z,-5.00
2019-01-23T05:19:00.416Z,-4.90
2019-01-23T05:19:36.408Z,-4.90
2019-01-23T05:20:13.026Z,-4.90
2019-01-23T05:20:48.866Z,-4.90
2019-01-23T05:21:24.377Z,-4.90
2019-01-23T05:22:00.041Z,-4.90
2019-01-23T05:22:35.793Z,-4.90
2019-01-23T05:23:11.712Z,-4.90
2019-01-23T05:23:47.326Z,-4.90
2019-01-23T05:24:23.085Z,-4.90
2019-01-23T05:24:58.722Z,-4.90
2019-01-23T05:25:34.585Z,-4.90
2019-01-23T05:26:10.403Z,-4.90
2019-01-23T05:26:46.167Z,-4.90
2019-01-23T05:27:22.325Z,-4.90
2019-01-23T05:27:57.996Z,-4.90
2019-01-23T05:28:33.648Z,-4.90
2019-01-23T05:29:09.280Z,-4.90
2019-01-23T05:29:45.243Z,-4.90
2019-01-23T05:30:25.305Z,-4.90
2019-01-23T05:31:00.970Z,-5.00
2019-01-23T05:31:36.823Z,-4.90
2019-01-23T05:32:12.707Z,-4.90
2019-01-23T05:32:48.444Z,-4.90
2019-01-23T05:33:24.282Z,-4.90
2019-01-23T05:33:59.940Z,-4.90
2019-01-23T05:34:35.703Z,-4.90
2019-01-23T05:35:11.786Z,-4.90
2019-01-23T05:35:47.553Z,-4.90
2019-01-23T05:36:23.286Z,-4.90
2019-01-23T05:36:58.907Z,-4.90
2019-01-23T05:37:34.649Z,-4.90
2019-01-23T05:38:10.280Z,-4.90
2019-01-23T05:38:46.103Z,-4.90
2019-01-23T05:39:21.747Z,-4.90
2019-01-23T05:39:57.449Z,-4.90
2019-01-23T05:40:33.139Z,-4.90
2019-01-23T05:41:09.016Z,-4.80
2019-01-23T05:41:44.896Z,-4.80
2019-01-23T05:42:20.585Z,-4.80
2019-01-23T05:42:56.402Z,-4.80
2019-01-23T05:43:32.177Z,-4.80
2019-01-23T05:44:07.841Z,-4.80
2019-01-23T05:44:43.570Z,-4.80
2019-01-23T05:45:19.465Z,-4.80
2019-01-23T05:45:54.995Z,-4.90
2019-01-23T05:46:30.808Z,-4.80
2019-01-23T05:47:06.487Z,-4.80
2019-01-23T05:47:42.249Z,-4.80
2019-01-23T05:48:17.922Z,-4.80
2019-01-23T05:48:53.775Z,-4.80
2019-01-23T05:49:29.481Z,-4.80
2019-01-23T05:50:05.493Z,-4.80
2019-01-23T05:50:41.312Z,-4.80
2019-01-23T05:51:17.164Z,-4.80
2019-01-23T05:51:52.915Z,-4.80
2019-01-23T05:52:28.735Z,-4.80
2019-01-23T05:53:04.426Z,-4.80
2019-01-23T05:53:40.482Z,-4.80
2019-01-23T05:54:16.306Z,-4.80
2019-01-23T05:54:52.124Z,-4.80
2019-01-23T05:55:28.101Z,-4.80
2019-01-23T05:56:04.246Z,-4.80
2019-01-23T05:56:39.817Z,-4.80
2019-01-23T05:57:15.572Z,-4.80
2019-01-23T05:57:51.394Z,-4.80
2019-01-23T05:58:27.273Z,-4.80
2019-01-23T05:59:03.144Z,-4.80
2019-01-23T05:59:39.012Z,-4.80
2019-01-23T06:00:16.968Z,-4.80
2019-01-23T06:00:52.979Z,-4.80
2019-01-23T06:01:28.837Z,-4.80
2019-01-23T06:02:04.859Z,-4.80
2019-01-23T06:02:40.794Z,-4.80
2019-01-23T06:03:16.877Z,-4.80
2019-01-23T06:03:52.909Z,-4.80
2019-01-23T06:04:28.699Z,-4.80
2019-01-23T06:05:04.777Z,-4.70
2019-01-23T06:05:40.495Z,-4.70
2019-01-23T06:06:16.371Z,-4.70
2019-01-23T06:06:52.362Z,-4.70
2019-01-23T06:07:28.008Z,-4.70
2019-01-23T06:08:03.825Z,-4.70
2019-01-23T06:08:39.749Z,-4.70
2019-01-23T06:09:19.097Z,-4.70
2019-01-23T06:09:54.933Z,-4.70
2019-01-23T06:10:30.740Z,-4.70
2019-01-23T06:11:06.409Z,-4.70
2019-01-23T06:11:42.423Z,-4.70
2019-01-23T06:12:18.924Z,-4.70
2019-01-23T06:12:54.913Z,-4.70
2019-01-23T06:13:30.950Z,-4.70
2019-01-23T06:14:06.841Z,-4.70
2019-01-23T06:14:42.847Z,-4.70
2019-01-23T06:15:18.817Z,-4.70
2019-01-23T06:15:54.962Z,-4.70
2019-01-23T06:16:30.895Z,-4.70
2019-01-23T06:17:06.953Z,-4.70
2019-01-23T06:17:42.877Z,-4.70
2019-01-23T06:18:18.725Z,-4.70
2019-01-23T06:18:54.464Z,-4.70
2019-01-23T06:19:30.608Z,-4.70
2019-01-23T06:20:09.012Z,-4.70
2019-01-23T06:20:45.100Z,-4.70
2019-01-23T06:21:21.040Z,-4.70
2019-01-23T06:21:58.081Z,-4.70
2019-01-23T06:22:33.780Z,-4.70
2019-01-23T06:23:09.344Z,-4.70
2019-01-23T06:23:45.240Z,-4.70
2019-01-23T06:24:21.430Z,-4.70
2019-01-23T06:24:57.454Z,-4.70
2019-01-23T06:25:33.423Z,-4.60
2019-01-23T06:26:09.393Z,-4.60
2019-01-23T06:26:45.152Z,-4.60
2019-01-23T06:27:21.665Z,-4.60
2019-01-23T06:27:57.418Z,-4.60
2019-01-23T06:28:33.380Z,-4.60
2019-01-23T06:29:09.513Z,-4.60
2019-01-23T06:29:45.433Z,-4.60
2019-01-23T06:30:26.312Z,-4.60
2019-01-23T06:31:02.139Z,-4.60
2019-01-23T06:31:37.747Z,-4.60
2019-01-23T06:32:13.492Z,-4.50
2019-01-23T06:32:49.244Z,-4.50
2019-01-23T06:33:25.138Z,-4.50
2019-01-23T06:34:01.131Z,-4.50
2019-01-23T06:34:37.023Z,-4.50
2019-01-23T06:35:13.147Z,-4.50
2019-01-23T06:35:49.066Z,-4.50
2019-01-23T06:36:25.354Z,-4.50
2019-01-23T06:37:01.366Z,-4.50
2019-01-23T06:37:37.276Z,-4.50
2019-01-23T06:38:13.090Z,-4.50
2019-01-23T06:38:48.788Z,-4.50
2019-01-23T06:39:24.389Z,-4.50
2019-01-23T06:40:00.243Z,-4.50
2019-01-23T06:40:36.329Z,-4.50
2019-01-23T06:41:12.101Z,-4.50
2019-01-23T06:41:47.913Z,-4.50
2019-01-23T06:42:23.672Z,-4.40
2019-01-23T06:42:59.216Z,-4.40
2019-01-23T06:43:35.063Z,-4.40
2019-01-23T06:44:11.007Z,-4.40
2019-01-23T06:44:47.064Z,-4.40
2019-01-23T06:45:23.115Z,-4.40
2019-01-23T06:45:58.843Z,-4.40
2019-01-23T06:46:34.576Z,-4.40
2019-01-23T06:47:10.614Z,-4.40
2019-01-23T06:47:46.598Z,-4.40
2019-01-23T06:48:22.353Z,-4.40
2019-01-23T06:48:58.348Z,-4.40
2019-01-23T06:49:34.008Z,-4.40
2019-01-23T06:50:12.822Z,-4.30
2019-01-23T06:50:49.276Z,-4.30
2019-01-23T06:51:25.124Z,-4.30
2019-01-23T06:52:01.001Z,-4.40
2019-01-23T06:52:36.865Z,-4.30
2019-01-23T06:53:14.251Z,-4.30
2019-01-23T06:53:50.512Z,-4.30
2019-01-23T06:54:26.237Z,-4.30
2019-01-23T06:55:01.986Z,-4.30
2019-01-23T06:55:37.733Z,-4.30
2019-01-23T06:56:13.616Z,-4.30
2019-01-23T06:56:49.260Z,-4.30
2019-01-23T06:57:25.393Z,-4.30
2019-01-23T06:58:01.344Z,-4.30
2019-01-23T06:58:36.990Z,-4.30
2019-01-23T06:59:12.678Z,-4.30
2019-01-23T06:59:48.373Z,-4.30
2019-01-23T07:00:26.232Z,-4.30
2019-01-23T07:01:02.399Z,-4.20
2019-01-23T07:01:38.245Z,-4.20
2019-01-23T07:02:14.504Z,-4.20
2019-01-23T07:02:50.520Z,-4.20
2019-01-23T07:03:26.357Z,-4.20
2019-01-23T07:04:02.239Z,-4.20
2019-01-23T07:04:38.077Z,-4.20
2019-01-23T07:05:14.399Z,-4.20
2019-01-23T07:05:50.174Z,-4.20
2019-01-23T07:06:26.603Z,-4.10
2019-01-23T07:07:02.370Z,-4.20
2019-01-23T07:07:38.578Z,-4.10
2019-01-23T07:08:14.349Z,-4.10
2019-01-23T07:08:49.988Z,-4.10
2019-01-23T07:09:25.653Z,-4.10
2019-01-23T07:10:01.509Z,-4.10
2019-01-23T07:10:37.187Z,-4.10
2019-01-23T07:11:13.042Z,-4.10
2019-01-23T07:11:48.775Z,-4.10
2019-01-23T07:12:24.375Z,-4.10
2019-01-23T07:13:00.407Z,-4.10
2019-01-23T07:13:36.253Z,-4.10
2019-01-23T07:14:12.186Z,-4.10
2019-01-23T07:14:48.317Z,-4.10
2019-01-23T07:15:24.510Z,-4.10
2019-01-23T07:16:00.262Z,-4.10
2019-01-23T07:16:36.029Z,-4.10
2019-01-23T07:17:11.770Z,-4.10
2019-01-23T07:17:47.616Z,-4.10
2019-01-23T07:18:23.554Z,-4.10
2019-01-23T07:18:59.336Z,-4.10
2019-01-23T07:19:35.519Z,-4.10
2019-01-23T07:20:14.769Z,-4.10
2019-01-23T07:20:50.878Z,-4.00
2019-01-23T07:21:27.041Z,-4.00
2019-01-23T07:22:03.389Z,-4.00
2019-01-23T07:22:39.480Z,-4.00
2019-01-23T07:23:15.573Z,-4.00
2019-01-23T07:23:51.434Z,-4.00
2019-01-23T07:24:28.437Z,-4.00
2019-01-23T07:25:04.421Z,-4.00
2019-01-23T07:25:40.317Z,-4.00
2019-01-23T07:26:16.110Z,-4.00
2019-01-23T07:26:52.070Z,-4.10
2019-01-23T07:27:27.895Z,-4.10
2019-01-23T07:28:03.647Z,-4.10
2019-01-23T07:28:39.416Z,-4.10
2019-01-23T07:29:15.749Z,-4.10
2019-01-23T07:29:51.484Z,-4.00
2019-01-23T07:30:32.942Z,-4.00
2019-01-23T07:31:08.921Z,-4.00
2019-01-23T07:31:45.124Z,-4.00
2019-01-23T07:32:21.149Z,-4.00
2019-01-23T07:32:57.038Z,-3.90
2019-01-23T07:33:32.934Z,-4.00
2019-01-23T07:34:08.972Z,-4.00
2019-01-23T07:34:44.765Z,-4.00
2019-01-23T07:35:20.687Z,-3.90
2019-01-23T07:35:56.480Z,-4.00
2019-01-23T07:36:32.464Z,-3.90
2019-01-23T07:37:08.874Z,-3.90
2019-01-23T07:37:44.733Z,-3.90
2019-01-23T07:38:20.406Z,-3.90
2019-01-23T07:38:56.226Z,-3.80
2019-01-23T07:39:32.296Z,-3.80
2019-01-23T07:40:11.682Z,-3.80
2019-01-23T07:40:47.585Z,-3.80
2019-01-23T07:41:23.820Z,-3.80
2019-01-23T07:41:59.466Z,-3.80
2019-01-23T07:42:35.274Z,-3.70
2019-01-23T07:43:11.499Z,-3.80